Time;durP1;ratioP1;P1;durP2;ratioP2;P2;SDS_P1;SDS_P2;PMS_P1;PMS_P2;Temp;Humidity;BMP_temperature;BMP_pressure;BME280_temperature;BME280_humidity;BME280_pressure;Samples;Min_cycle;Max_cycle;Signal;HPM_P1;HPM_P2
2023/04/13 00:00:07;;;;;;;8.00;5.20;;;;;;;12.92;68.28;99268.38;104513;1269;64739;-53
2023/04/13 00:02:37;;;;;;;7.10;4.80;;;;;;;12.97;68.17;99271.02;104736;1267;59469;-53
2023/04/13 00:05:09;;;;;;;8.40;4.90;;;;;;;12.96;68.06;99276.17;104976;1266;59762;-52
2023/04/13 00:07:40;;;;;;;8.10;5.30;;;;;;;12.94;67.99;99269.73;105429;1260;65242;-51
2023/04/13 00:10:09;;;;;;;10.70;5.10;;;;;;;12.91;68.02;99264.60;105169;1260;62754;-51
2023/04/13 00:12:37;;;;;;;10.70;4.80;;;;;;;12.92;68.01;99261.98;105019;1263;64970;-53
2023/04/13 00:15:05;;;;;;;9.80;5.00;;;;;;;12.96;67.91;99263.17;105112;1260;59638;-53
2023/04/13 00:17:36;;;;;;;10.80;5.10;;;;;;;12.98;67.94;99269.52;105076;1262;59538;-51
2023/04/13 00:20:11;;;;;;;8.80;4.50;;;;;;;12.98;68.22;99269.35;105380;1260;74079;-50
2023/04/13 00:22:39;;;;;;;6.90;4.70;;;;;;;12.98;68.24;99265.05;105384;1261;62527;-51
2023/04/13 00:25:08;;;;;;;11.30;4.80;;;;;;;12.99;68.16;99262.17;105153;1261;65043;-52
2023/04/13 00:27:36;;;;;;;13.20;5.50;;;;;;;12.99;67.98;99261.27;104913;1263;60239;-52
2023/04/13 00:30:11;;;;;;;8.80;4.80;;;;;;;12.99;67.75;99258.39;105874;1260;59631;-53
2023/04/13 00:32:43;;;;;;;8.40;4.70;;;;;;;13.05;67.42;99253.83;105914;1263;65304;-52
2023/04/13 00:35:11;;;;;;;7.90;5.20;;;;;;;13.10;66.96;99245.70;105291;1260;62523;-53
2023/04/13 00:37:38;;;;;;;8.00;4.90;;;;;;;13.09;66.79;99245.70;105264;1260;64925;-51
2023/04/13 00:40:10;;;;;;;8.60;5.00;;;;;;;13.07;66.87;99255.48;105068;1263;59726;-55
2023/04/13 00:42:37;;;;;;;10.20;5.00;;;;;;;13.03;66.90;99246.00;105098;1259;59753;-52
2023/04/13 00:45:05;;;;;;;9.30;5.20;;;;;;;12.97;67.03;99245.05;105053;1260;66030;-52
2023/04/13 00:47:33;;;;;;;8.30;4.30;;;;;;;12.97;67.02;99248.12;105075;1261;62662;-52
2023/04/13 00:50:00;;;;;;;8.00;4.50;;;;;;;13.00;67.04;99246.21;105042;1263;65156;-53
2023/04/13 00:52:28;;;;;;;9.60;4.90;;;;;;;13.03;66.92;99250.85;105012;1264;60323;-52
2023/04/13 00:55:01;;;;;;;9.20;4.60;;;;;;;13.01;67.05;99247.30;105788;1264;59650;-52
2023/04/13 00:57:31;;;;;;;8.80;4.80;;;;;;;12.97;67.06;99234.59;105333;1260;65433;-53
2023/04/13 01:00:08;;;;;;;8.70;4.30;;;;;;;12.86;67.24;99239.81;105373;1259;62976;-53
2023/04/13 01:02:43;;;;;;;9.80;5.20;;;;;;;12.83;67.24;99248.55;105816;1260;64290;-53
2023/04/13 01:05:14;;;;;;;9.20;4.20;;;;;;;12.86;67.09;99247.13;105381;1261;59609;-55
2023/04/13 01:07:50;;;;;;;8.00;4.60;;;;;;;12.87;67.04;99249.38;105129;1259;59651;-52
2023/04/13 01:10:38;;;;;;;10.90;4.80;;;;;;;12.83;67.00;99249.98;105555;1263;65125;-54
2023/04/13 01:13:39;;;;;;;10.70;5.40;;;;;;;12.77;67.40;99247.59;105016;1260;63217;-52
2023/04/13 01:16:18;;;;;;;11.20;5.40;;;;;;;12.70;67.41;99245.14;105057;1263;65043;-52
2023/04/13 01:18:48;;;;;;;9.40;4.70;;;;;;;12.61;67.57;99251.55;105085;1260;59698;-52
2023/04/13 01:21:20;;;;;;;10.10;5.00;;;;;;;12.53;67.77;99252.52;105077;1261;59670;-53
2023/04/13 01:23:47;;;;;;;8.40;4.50;;;;;;;12.51;68.02;99251.96;105945;1259;65505;-53
2023/04/13 01:26:16;;;;;;;8.20;4.80;;;;;;;12.58;67.99;99250.88;105145;1259;63818;-52
2023/04/13 01:28:46;;;;;;;7.90;5.10;;;;;;;12.68;67.83;99248.75;105185;1259;65045;-52
2023/04/13 01:31:14;;;;;;;8.30;4.70;;;;;;;12.70;67.88;99242.02;105040;1260;59616;-52
2023/04/13 01:33:41;;;;;;;8.60;5.30;;;;;;;12.72;67.70;99239.16;105784;1259;60228;-52
2023/04/13 01:36:09;;;;;;;8.80;5.10;;;;;;;12.73;67.51;99235.44;105519;1262;65282;-52
2023/04/13 01:38:37;;;;;;;11.00;5.00;;;;;;;12.72;67.36;99233.84;104969;1264;62699;-52
2023/04/13 01:41:07;;;;;;;10.10;4.70;;;;;;;12.72;67.34;99234.63;105054;1261;64871;-52
2023/04/13 01:43:38;;;;;;;9.90;4.90;;;;;;;12.70;67.41;99240.30;105328;1261;59641;-52
2023/04/13 01:46:08;;;;;;;9.50;5.60;;;;;;;12.66;67.56;99242.24;105394;1262;59566;-52
2023/04/13 01:48:49;;;;;;;9.90;5.30;;;;;;;12.62;67.55;99252.70;105039;1258;64424;-50
2023/04/13 01:51:28;;;;;;;9.00;4.80;;;;;;;12.57;67.69;99254.48;105038;1260;62474;-54
2023/04/13 01:54:01;;;;;;;9.10;4.50;;;;;;;12.58;67.66;99248.39;104877;1261;64522;-51
2023/04/13 01:56:31;;;;;;;11.10;5.20;;;;;;;12.61;67.61;99248.39;105111;1260;60340;-52
2023/04/13 01:59:01;;;;;;;10.20;5.40;;;;;;;12.61;67.60;99251.05;105276;1260;60346;-53
2023/04/13 02:01:29;;;;;;;10.70;4.90;;;;;;;12.59;67.80;99255.27;105363;1263;65526;-51
2023/04/13 02:04:56;;;;;;;8.40;4.50;;;;;;;12.54;67.95;99263.29;105125;1263;62649;-51
2023/04/13 02:07:24;;;;;;;7.80;4.20;;;;;;;12.50;68.04;99269.52;106046;1260;64814;-52
2023/04/13 02:09:51;;;;;;;8.90;4.30;;;;;;;12.45;68.14;99274.85;105169;1260;59858;-52
2023/04/13 02:12:50;;;;;;;8.30;3.70;;;;;;;12.57;67.85;99262.98;105453;1259;60171;-52
2023/04/13 02:15:17;;;;;;;10.00;4.30;;;;;;;12.60;67.79;99254.32;104889;1260;64751;-53
2023/04/13 02:17:45;;;;;;;8.80;4.90;;;;;;;12.57;67.74;99256.23;104988;1262;63313;-53
2023/04/13 02:20:12;;;;;;;7.90;4.00;;;;;;;12.55;67.71;99259.22;108628;1258;67566;-53
2023/04/13 02:22:46;;;;;;;6.90;4.20;;;;;;;12.54;67.72;99255.21;105989;1259;60454;-52
2023/04/13 02:25:16;;;;;;;10.00;3.70;;;;;;;12.49;67.70;99253.05;106121;1258;60440;-53
2023/04/13 02:27:43;;;;;;;10.10;4.30;;;;;;;12.49;67.79;99258.50;105707;1263;66326;-52
2023/04/13 02:30:10;;;;;;;8.80;4.50;;;;;;;12.51;67.66;99259.52;105107;1259;61451;-53
2023/04/13 02:32:57;;;;;;;10.90;4.50;;;;;;;12.52;67.73;99257.01;105146;1263;67979;-53
2023/04/13 02:35:24;;;;;;;7.40;4.20;;;;;;;12.52;67.92;99255.09;105016;1260;60667;-53
2023/04/13 02:37:52;;;;;;;7.40;4.40;;;;;;;12.50;68.02;99255.09;105623;1260;60479;-52
2023/04/13 02:40:20;;;;;;;12.60;4.50;;;;;;;12.51;67.98;99256.77;106055;1263;65954;-52
2023/04/13 02:42:51;;;;;;;7.80;4.10;;;;;;;12.49;67.97;99259.60;105032;1260;62766;-53
2023/04/13 02:45:19;;;;;;;7.20;4.00;;;;;;;12.56;67.73;99258.43;105083;1260;64833;-51
2023/04/13 02:47:53;;;;;;;9.00;4.20;;;;;;;12.61;67.74;99264.48;105118;1260;60541;-51
2023/04/13 02:50:21;;;;;;;9.00;5.20;;;;;;;12.53;68.05;99262.34;105514;1259;60566;-52
2023/04/13 02:52:56;;;;;;;6.80;4.30;;;;;;;12.50;68.26;99256.36;105159;1258;65162;-52
2023/04/13 02:55:26;;;;;;;7.60;4.20;;;;;;;12.48;68.15;99252.69;105212;1263;62640;-52
2023/04/13 02:58:05;;;;;;;7.80;4.40;;;;;;;12.44;68.16;99258.97;105133;1261;64813;-52
2023/04/13 03:00:32;;;;;;;9.50;4.30;;;;;;;12.47;68.08;99260.50;105293;1259;60521;-52
2023/04/13 03:03:19;;;;;;;10.60;5.10;;;;;;;12.50;68.12;99257.53;104819;1260;60562;-53
2023/04/13 03:05:49;;;;;;;9.50;4.50;;;;;;;12.52;68.05;99257.73;105302;1260;66384;-51
2023/04/13 03:08:18;;;;;;;10.40;4.80;;;;;;;12.48;68.00;99255.78;104959;1264;62672;-52
2023/04/13 03:11:08;;;;;;;11.40;5.40;;;;;;;12.44;68.05;99259.02;104747;1260;64780;-51
2023/04/13 03:13:36;;;;;;;8.80;4.80;;;;;;;12.41;68.13;99260.21;105157;1263;60574;-51
2023/04/13 03:16:03;;;;;;;7.50;3.90;;;;;;;12.42;67.97;99261.72;105199;1260;60485;-52
2023/04/13 03:18:31;;;;;;;7.70;4.30;;;;;;;12.44;67.76;99259.71;105070;1260;65988;-51
2023/04/13 03:20:58;;;;;;;10.20;4.10;;;;;;;12.43;67.85;99265.65;105189;1260;62853;-50
2023/04/13 03:23:31;;;;;;;11.60;4.90;;;;;;;12.38;68.01;99270.75;104885;1263;64775;-50
2023/04/13 03:25:58;;;;;;;8.70;4.40;;;;;;;12.31;68.13;99271.79;105006;1260;60549;-51
2023/04/13 03:28:26;;;;;;;7.60;3.70;;;;;;;12.24;68.18;99273.95;105119;1259;60478;-51
2023/04/13 03:30:53;;;;;;;7.90;4.40;;;;;;;12.21;68.14;99271.23;105065;1262;66283;-51
2023/04/13 03:33:20;;;;;;;7.30;4.20;;;;;;;12.21;68.11;99273.70;105143;1259;62711;-52
2023/04/13 03:35:47;;;;;;;8.80;4.40;;;;;;;12.21;68.28;99279.33;105018;1264;65030;-53
2023/04/13 03:38:20;;;;;;;10.40;4.60;;;;;;;12.21;68.48;99285.70;105345;1260;60529;-51
2023/04/13 03:40:48;;;;;;;8.80;4.90;;;;;;;12.21;68.62;99284.45;105246;1259;60549;-51
2023/04/13 03:43:15;;;;;;;7.90;4.40;;;;;;;12.25;68.57;99284.27;105069;1263;65987;-51
2023/04/13 03:45:45;;;;;;;8.10;4.60;;;;;;;12.26;68.33;99284.07;105016;1260;62494;-52
2023/04/13 03:48:14;;;;;;;8.90;4.60;;;;;;;12.29;68.29;99288.59;105075;1262;64918;-51
2023/04/13 03:50:41;;;;;;;8.10;4.20;;;;;;;12.31;68.19;99292.62;105436;1260;60548;-50
2023/04/13 03:53:08;;;;;;;8.30;4.30;;;;;;;12.28;68.22;99292.71;105134;1263;60587;-50
2023/04/13 03:55:36;;;;;;;7.80;4.60;;;;;;;12.24;68.39;99288.34;105114;1263;66279;-51
2023/04/13 03:58:10;;;;;;;11.90;4.90;;;;;;;12.21;68.44;99286.96;105004;1263;61924;-52
2023/04/13 04:00:38;;;;;;;8.10;4.20;;;;;;;12.21;68.45;99287.84;104845;1260;65035;-51
2023/04/13 04:03:09;;;;;;;9.30;4.90;;;;;;;12.30;68.20;99287.94;104953;1259;60548;-52
2023/04/13 04:05:48;;;;;;;8.50;5.10;;;;;;;12.32;68.02;99289.66;105044;1263;60440;-51
2023/04/13 04:08:17;;;;;;;9.10;5.10;;;;;;;12.29;68.19;99296.70;105395;1263;66212;-53
2023/04/13 04:10:45;;;;;;;8.00;4.80;;;;;;;12.24;68.36;99308.39;105035;1260;62524;-52
2023/04/13 04:13:13;;;;;;;9.40;5.80;;;;;;;12.25;68.48;99309.08;105413;1261;64831;-51
2023/04/13 04:15:45;;;;;;;8.40;4.50;;;;;;;12.23;68.61;99303.27;105284;1260;60371;-52
2023/04/13 04:18:12;;;;;;;9.40;4.40;;;;;;;12.22;68.58;99305.26;105056;1263;60373;-52
2023/04/13 04:20:39;;;;;;;8.60;5.40;;;;;;;12.20;68.65;99305.80;105054;1263;65922;-53
2023/04/13 04:23:08;;;;;;;9.40;5.10;;;;;;;12.19;68.80;99304.15;104954;1259;62498;-51
2023/04/13 04:25:41;;;;;;;9.50;5.30;;;;;;;12.17;68.87;99301.27;105103;1260;65126;-52
2023/04/13 04:28:08;;;;;;;7.40;4.90;;;;;;;12.16;68.81;99302.38;105242;1260;60440;-50
2023/04/13 04:30:35;;;;;;;8.70;5.10;;;;;;;12.18;68.87;99305.67;105017;1261;62990;-51
2023/04/13 04:33:04;;;;;;;10.80;5.80;;;;;;;12.20;68.90;99311.45;105450;1259;66288;-52
2023/04/13 04:35:34;;;;;;;8.90;4.80;;;;;;;12.19;68.99;99310.52;105309;1260;62822;-51
2023/04/13 04:38:03;;;;;;;10.00;5.60;;;;;;;12.17;69.02;99310.77;105019;1260;64702;-52
2023/04/13 04:40:34;;;;;;;10.30;5.20;;;;;;;12.14;69.01;99311.09;105348;1261;61401;-51
2023/04/13 04:43:03;;;;;;;10.80;5.20;;;;;;;12.14;68.84;99309.48;104637;1258;60508;-50
2023/04/13 04:45:37;;;;;;;8.50;5.10;;;;;;;12.13;68.99;99303.80;105095;1259;66298;-51
2023/04/13 04:48:06;;;;;;;11.10;5.70;;;;;;;12.07;69.09;99297.50;105179;1258;62756;-51
2023/04/13 04:50:33;;;;;;;8.50;5.50;;;;;;;12.01;69.35;99294.27;105122;1260;65361;-52
2023/04/13 04:53:09;;;;;;;;;;;;;;;11.99;69.45;99296.80;105070;1260;60494;-50
2023/04/13 04:55:37;;;;;;;9.80;6.30;;;;;;;12.01;69.37;99299.77;104832;1260;60454;-50
2023/04/13 04:58:05;;;;;;;10.20;6.40;;;;;;;12.01;69.58;99300.89;105361;1263;66052;-50
2023/04/13 05:00:34;;;;;;;16.30;7.10;;;;;;;12.05;69.71;99303.52;105105;1260;62785;-51
2023/04/13 05:03:15;;;;;;;12.80;6.60;;;;;;;12.05;69.67;99302.59;104969;1259;65165;-51
2023/04/13 05:05:47;;;;;;;13.50;7.00;;;;;;;12.07;69.69;99304.02;105090;1260;60427;-52
2023/04/13 05:08:19;;;;;;;10.00;5.90;;;;;;;12.12;69.48;99305.48;104925;1260;60530;-51
2023/04/13 05:10:47;;;;;;;11.00;6.50;;;;;;;12.10;69.58;99309.14;105093;1262;66090;-52
2023/04/13 05:13:14;;;;;;;10.00;6.70;;;;;;;12.10;69.64;99304.13;105151;1260;62766;-52
2023/04/13 05:15:48;;;;;;;11.80;6.30;;;;;;;12.05;69.50;99302.95;104962;1260;65156;-52
2023/04/13 05:18:18;;;;;;;11.10;6.20;;;;;;;12.08;69.47;99307.05;106907;1260;59325;-53
2023/04/13 05:20:44;;;;;;;9.90;6.00;;;;;;;12.14;69.47;99310.92;108715;1259;58221;-54
2023/04/13 05:23:12;;;;;;;11.40;7.00;;;;;;;12.17;69.42;99318.66;108725;1259;65073;-53
2023/04/13 05:25:44;;;;;;;10.60;6.40;;;;;;;12.22;69.49;99320.10;106135;1263;62153;-52
2023/04/13 05:28:16;;;;;;;9.00;6.20;;;;;;;12.26;69.42;99318.22;108626;1260;64994;-53
2023/04/13 05:30:45;;;;;;;12.20;6.50;;;;;;;12.30;69.28;99318.50;108635;1260;58385;-53
2023/04/13 05:33:19;;;;;;;12.40;6.30;;;;;;;12.39;68.96;99321.06;106062;1259;60687;-52
2023/04/13 05:35:48;;;;;;;8.70;5.40;;;;;;;12.48;68.81;99324.41;105268;1260;74115;-51
2023/04/13 05:38:15;;;;;;;9.30;5.50;;;;;;;12.51;68.69;99323.70;105060;1260;62594;-52
2023/04/13 05:40:42;;;;;;;8.70;5.80;;;;;;;12.53;68.73;99330.20;105362;1259;64735;-53
2023/04/13 05:43:09;;;;;;;9.40;6.00;;;;;;;12.56;68.65;99332.73;105324;1254;60541;-53
2023/04/13 05:45:40;;;;;;;10.90;6.40;;;;;;;12.58;68.40;99332.85;105252;1254;60636;-51
2023/04/13 05:48:09;;;;;;;9.20;5.60;;;;;;;12.65;68.27;99327.23;105241;1259;66002;-53
2023/04/13 05:50:36;;;;;;;10.70;6.20;;;;;;;12.71;68.21;99324.07;105498;1254;62574;-52
2023/04/13 05:53:06;;;;;;;10.50;6.30;;;;;;;12.77;68.38;99322.96;105285;1254;64870;-53
2023/04/13 05:55:42;;;;;;;11.00;5.90;;;;;;;12.81;68.18;99320.89;105184;1258;60368;-52
2023/04/13 05:58:11;;;;;;;9.40;6.20;;;;;;;12.81;68.00;99321.91;105454;1258;60454;-52
2023/04/13 06:00:38;;;;;;;11.00;5.80;;;;;;;12.81;67.99;99323.20;105294;1259;65981;-52
2023/04/13 06:03:07;;;;;;;11.70;5.80;;;;;;;12.87;67.82;99322.80;105270;1254;62786;-53
2023/04/13 06:05:36;;;;;;;9.90;6.10;;;;;;;12.92;67.57;99321.89;105421;1255;64825;-52
2023/04/13 06:08:03;;;;;;;15.60;7.10;;;;;;;12.92;67.62;99316.61;105415;1254;60568;-53
2023/04/13 06:10:30;;;;;;;10.20;6.90;;;;;;;12.94;67.80;99313.90;105542;1259;60440;-53
2023/04/13 06:12:59;;;;;;;10.00;6.90;;;;;;;13.00;67.93;99312.91;105251;1260;66227;-52
2023/04/13 06:15:28;;;;;;;10.30;6.50;;;;;;;13.07;67.88;99321.54;105201;1254;62697;-52
2023/04/13 06:17:54;;;;;;;10.90;6.70;;;;;;;13.16;67.64;99321.23;105686;1254;64958;-50
2023/04/13 06:20:23;;;;;;;9.70;6.60;;;;;;;13.31;67.45;99325.10;105101;1257;60511;-62
2023/04/13 06:22:51;;;;;;;9.80;6.60;;;;;;;13.43;67.31;99331.55;105161;1254;60818;-52
2023/04/13 06:25:19;;;;;;;11.50;6.80;;;;;;;13.51;67.16;99334.26;105369;1254;66206;-51
2023/04/13 06:27:53;;;;;;;9.80;5.90;;;;;;;13.52;66.84;99336.76;105174;1254;62452;-53
2023/04/13 06:30:21;;;;;;;12.00;6.20;;;;;;;13.53;66.66;99339.96;105535;1259;64946;-54
2023/04/13 06:32:51;;;;;;;10.50;6.20;;;;;;;13.58;66.28;99347.55;106173;1254;60545;-53
2023/04/13 06:35:22;;;;;;;8.80;5.20;;;;;;;13.66;65.97;99349.34;106736;1254;60096;-51
2023/04/13 06:37:50;;;;;;;9.40;5.60;;;;;;;13.72;65.47;99354.86;105408;1258;67056;-53
2023/04/13 06:40:24;;;;;;;10.20;5.00;;;;;;;13.74;65.00;99355.29;105539;1257;62353;-52
2023/04/13 06:42:58;;;;;;;;;;;;;;;13.78;64.93;99357.06;105736;1254;65309;-53
2023/04/13 06:45:40;;;;;;;10.50;5.00;;;;;;;13.85;64.80;99356.59;105186;1254;61453;-53
2023/04/13 06:48:10;;;;;;;8.40;4.90;;;;;;;13.89;64.36;99356.20;105296;1259;60434;-52
2023/04/13 06:50:39;;;;;;;8.80;4.60;;;;;;;13.92;63.98;99355.60;105358;1254;65181;-53
2023/04/13 06:53:06;;;;;;;11.90;4.50;;;;;;;14.01;63.30;99351.02;105317;1254;62613;-53
2023/04/13 06:55:35;;;;;;;9.80;4.80;;;;;;;14.10;62.86;99350.36;105362;1254;64924;-52
2023/04/13 06:58:03;;;;;;;9.20;5.10;;;;;;;14.22;62.42;99351.96;105318;1254;60447;-52
2023/04/13 07:00:30;;;;;;;9.50;4.80;;;;;;;14.22;62.17;99350.18;105610;1254;60476;-53
2023/04/13 07:03:00;;;;;;;8.10;4.50;;;;;;;14.26;61.86;99349.27;105561;1259;66155;-52
2023/04/13 07:05:28;;;;;;;8.80;4.60;;;;;;;14.28;61.34;99349.93;105337;1254;62469;-53
2023/04/13 07:07:59;;;;;;;9.90;5.30;;;;;;;14.25;61.58;99353.05;106870;1254;64874;-53
2023/04/13 07:10:26;;;;;;;8.90;5.10;;;;;;;14.27;61.32;99354.40;105585;1254;61470;-53
2023/04/13 07:12:54;;;;;;;9.00;5.00;;;;;;;14.18;61.59;99360.59;105400;1259;61073;-52
2023/04/13 07:15:23;;;;;;;7.60;4.20;;;;;;;14.25;61.12;99358.83;105411;1259;66273;-52
2023/04/13 07:17:51;;;;;;;9.90;5.20;;;;;;;14.33;61.00;99352.88;105615;1254;71418;-53
2023/04/13 07:20:18;;;;;;;8.50;5.00;;;;;;;14.33;60.66;99354.77;105679;1254;64876;-53
2023/04/13 07:22:47;;;;;;;11.10;5.70;;;;;;;14.29;60.66;99350.31;105892;1254;60488;-52
2023/04/13 07:25:14;;;;;;;11.90;5.50;;;;;;;14.30;60.64;99346.50;105489;1257;60459;-53
2023/04/13 07:27:42;;;;;;;10.00;5.30;;;;;;;14.35;60.61;99349.86;105414;1258;65864;-55
2023/04/13 07:30:09;;;;;;;8.90;4.90;;;;;;;14.44;60.37;99352.66;105584;1254;62659;-55
2023/04/13 07:32:41;;;;;;;7.70;4.60;;;;;;;14.57;59.95;99353.70;106208;1254;65206;-56
2023/04/13 07:35:08;;;;;;;9.70;4.80;;;;;;;14.65;58.82;99355.17;105418;1254;60505;-55
2023/04/13 07:37:36;;;;;;;8.50;4.80;;;;;;;14.69;58.30;99357.98;105540;1254;60344;-55
2023/04/13 07:40:05;;;;;;;9.20;5.00;;;;;;;14.74;58.17;99362.91;106033;1259;66621;-55
2023/04/13 07:42:33;;;;;;;8.80;4.60;;;;;;;14.80;58.01;99368.25;105476;1259;61688;-55
2023/04/13 07:45:01;;;;;;;10.20;4.50;;;;;;;14.84;57.77;99373.61;105140;1259;64889;-55
2023/04/13 07:47:29;;;;;;;7.70;4.00;;;;;;;14.86;57.75;99379.06;105457;1254;61742;-55
2023/04/13 07:50:00;;;;;;;8.30;4.40;;;;;;;14.86;57.27;99383.77;105701;1254;60475;-55
2023/04/13 07:52:28;;;;;;;8.30;4.60;;;;;;;14.85;57.43;99382.81;105691;1254;65081;-55
2023/04/13 07:54:55;;;;;;;9.10;4.70;;;;;;;14.87;57.67;99382.11;105595;1259;62436;-55
2023/04/13 07:57:23;;;;;;;7.60;4.20;;;;;;;14.90;57.75;99383.39;105744;1260;65261;-56
2023/04/13 07:59:55;;;;;;;11.10;5.30;;;;;;;14.93;57.55;99385.52;105537;1254;63908;-54
2023/04/13 08:02:23;;;;;;;8.70;4.20;;;;;;;14.91;57.58;99393.45;105820;1254;60456;-56
2023/04/13 08:04:54;;;;;;;9.70;4.80;;;;;;;14.90;57.68;99396.06;105374;1254;66201;-56
2023/04/13 08:07:26;;;;;;;9.00;5.00;;;;;;;14.90;57.70;99392.39;105494;1254;62679;-55
2023/04/13 08:09:53;;;;;;;8.90;4.20;;;;;;;14.89;57.68;99395.80;105254;1254;64052;-55
2023/04/13 08:12:21;;;;;;;7.90;4.60;;;;;;;14.92;57.23;99397.11;105252;1254;61201;-56
2023/04/13 08:14:53;;;;;;;9.80;4.30;;;;;;;14.94;57.36;99396.33;105284;1254;61133;-55
2023/04/13 08:17:21;;;;;;;8.80;3.80;;;;;;;14.96;57.35;99390.13;105323;1258;65970;-55
2023/04/13 08:19:49;;;;;;;6.80;3.80;;;;;;;14.97;56.96;99389.08;105399;1254;62628;-55
2023/04/13 08:22:21;;;;;;;7.90;4.00;;;;;;;14.97;56.84;99390.85;105318;1259;64908;-57
2023/04/13 08:24:48;;;;;;;7.10;4.00;;;;;;;14.96;56.75;99395.20;105372;1259;60564;-55
2023/04/13 08:27:14;;;;;;;8.80;4.50;;;;;;;14.95;57.21;99395.86;105328;1254;60504;-56
2023/04/13 08:29:41;;;;;;;8.90;4.90;;;;;;;14.93;57.12;99390.98;105258;1259;66097;-55
2023/04/13 08:32:09;;;;;;;8.20;4.20;;;;;;;14.89;56.44;99395.14;105676;1254;62814;-56
2023/04/13 08:34:37;;;;;;;8.80;4.30;;;;;;;14.82;56.56;99395.24;105358;1260;64779;-57
2023/04/13 08:37:04;;;;;;;10.50;4.00;;;;;;;14.81;56.85;99398.46;105316;1254;60870;-56
2023/04/13 08:39:42;;;;;;;8.70;4.80;;;;;;;14.83;57.02;99398.62;105296;1254;60479;-58
2023/04/13 08:42:10;;;;;;;10.30;4.40;;;;;;;14.82;57.00;99397.16;106212;1259;66033;-54
2023/04/13 08:44:41;;;;;;;9.60;4.70;;;;;;;14.80;56.82;99397.38;105348;1259;61706;-55
2023/04/13 08:47:15;;;;;;;9.20;4.60;;;;;;;14.83;56.77;99394.58;105265;1260;64778;-56
2023/04/13 08:49:43;;;;;;;9.10;5.00;;;;;;;14.85;56.71;99394.14;105419;1257;60735;-54
2023/04/13 08:52:10;;;;;;;10.60;5.10;;;;;;;14.87;56.42;99394.48;105202;1256;60879;-53
2023/04/13 08:54:40;;;;;;;9.00;5.10;;;;;;;14.90;56.43;99389.38;104941;1259;65962;-54
2023/04/13 08:57:14;;;;;;;8.60;5.00;;;;;;;14.90;55.74;99383.91;105036;1254;62608;-54
2023/04/13 08:59:41;;;;;;;7.70;5.00;;;;;;;14.90;55.78;99387.48;105514;1259;63990;-54
2023/04/13 09:02:09;;;;;;;6.80;4.50;;;;;;;14.91;56.36;99394.44;105568;1255;60502;-53
2023/04/13 09:04:44;;;;;;;7.60;3.80;;;;;;;15.02;56.65;99396.67;105410;1259;60751;-54
2023/04/13 09:07:20;;;;;;;7.50;4.70;;;;;;;15.17;56.34;99391.40;105375;1254;66262;-53
2023/04/13 09:09:54;;;;;;;8.60;5.70;;;;;;;15.29;55.64;99389.98;105352;1254;62656;-54
2023/04/13 09:12:23;;;;;;;8.20;4.80;;;;;;;15.38;55.53;99382.98;105291;1259;64818;-54
2023/04/13 09:14:51;;;;;;;9.70;4.60;;;;;;;15.45;54.73;99389.94;105342;1259;59174;-53
2023/04/13 09:17:31;;;;;;;9.10;4.80;;;;;;;15.50;54.66;99393.92;107009;1254;60561;-54
2023/04/13 09:20:19;;;;;;;11.70;4.80;;;;;;;15.53;53.99;99391.61;106947;1261;66772;-54
2023/04/13 09:22:50;;;;;;;7.70;4.10;;;;;;;15.55;53.95;99396.61;105467;1257;62776;-55
2023/04/13 09:25:24;;;;;;;7.80;4.50;;;;;;;15.56;54.14;99399.41;105585;1260;64696;-54
2023/04/13 09:27:51;;;;;;;8.00;3.90;;;;;;;15.58;54.15;99403.14;105660;1257;60565;-53
2023/04/13 09:30:23;;;;;;;7.30;3.80;;;;;;;15.60;54.06;99404.11;105284;1254;60555;-54
2023/04/13 09:33:03;;;;;;;8.50;5.30;;;;;;;15.63;54.30;99398.79;105366;1258;66582;-54
2023/04/13 09:35:31;;;;;;;7.30;4.30;;;;;;;15.69;54.45;99402.05;106081;1257;62506;-53
2023/04/13 09:37:59;;;;;;;8.50;4.90;;;;;;;15.73;54.35;99403.25;105437;1254;65054;-53
2023/04/13 09:40:26;;;;;;;13.90;4.80;;;;;;;15.77;53.98;99403.36;105310;1254;60454;-55
2023/04/13 09:43:01;;;;;;;9.00;5.00;;;;;;;15.80;53.75;99404.09;105307;1254;60411;-55
2023/04/13 09:45:35;;;;;;;10.50;5.10;;;;;;;15.83;53.63;99407.29;105667;1259;66020;-55
2023/04/13 09:48:03;;;;;;;9.50;4.80;;;;;;;15.84;53.36;99412.20;105569;1254;62442;-55
2023/04/13 09:50:35;;;;;;;7.00;4.20;;;;;;;15.81;52.65;99414.93;105300;1254;64827;-54
2023/04/13 09:53:05;;;;;;;9.50;4.50;;;;;;;15.77;52.33;99411.02;105283;1259;60569;-54
2023/04/13 09:55:33;;;;;;;10.30;4.90;;;;;;;15.74;52.75;99407.59;105646;1254;60705;-55
2023/04/13 09:58:13;;;;;;;7.50;4.00;;;;;;;15.75;52.41;99406.96;105870;1259;65985;-55
2023/04/13 10:00:43;;;;;;;8.30;4.20;;;;;;;15.75;52.51;99405.36;105454;1254;62976;-55
2023/04/13 10:03:12;;;;;;;8.60;4.70;;;;;;;15.77;52.61;99412.05;105501;1259;65351;-55
2023/04/13 10:05:40;;;;;;;9.00;4.50;;;;;;;15.79;52.76;99410.19;105237;1259;60434;-56
2023/04/13 10:08:26;;;;;;;10.70;4.70;;;;;;;15.85;52.74;99411.02;105519;1254;60562;-54
2023/04/13 10:11:11;;;;;;;7.10;3.90;;;;;;;15.88;52.97;99415.08;106530;1258;384403;-54
2023/04/13 10:15:45;;;;;;;7.50;3.80;;;;;;;15.74;52.62;99413.69;102477;1290;601091;-54
2023/04/13 10:18:41;;;;;;;6.90;3.40;;;;;;;15.98;52.16;99412.61;104833;1264;60090;-54
2023/04/13 10:21:10;;;;;;;9.40;4.20;;;;;;;16.09;52.15;99417.27;105292;1263;59716;-54
2023/04/13 10:23:38;;;;;;;7.40;4.30;;;;;;;16.20;51.63;99416.42;105235;1262;64589;-55
2023/04/13 10:26:07;;;;;;;6.90;4.00;;;;;;;16.34;50.90;99414.54;105817;1257;62361;-54
2023/04/13 10:28:46;;;;;;;10.60;4.20;;;;;;;16.47;50.16;99414.95;105174;1260;195203;-54
2023/04/13 10:31:15;;;;;;;8.10;3.90;;;;;;;16.49;50.25;99415.89;105415;1258;59445;-54
2023/04/13 10:33:49;;;;;;;7.40;4.20;;;;;;;16.47;50.26;99417.45;105361;1260;59427;-54
2023/04/13 10:36:17;;;;;;;12.10;4.30;;;;;;;16.37;50.10;99423.60;105302;1260;64209;-55
2023/04/13 10:38:47;;;;;;;9.50;3.90;;;;;;;16.22;50.44;99431.91;105722;1258;62327;-54
2023/04/13 10:41:23;;;;;;;7.00;3.50;;;;;;;16.13;51.08;99432.55;105838;1259;65002;-53
2023/04/13 10:44:05;;;;;;;9.50;4.00;;;;;;;16.07;50.99;99432.38;105296;1259;59739;-54
2023/04/13 10:46:34;;;;;;;10.00;4.30;;;;;;;16.01;51.26;99432.11;105493;1258;59694;-55
2023/04/13 10:49:03;;;;;;;8.20;3.80;;;;;;;15.97;51.52;99434.94;105788;1260;65384;-55
2023/04/13 10:51:39;;;;;;;9.10;3.80;;;;;;;15.97;51.75;99440.61;105373;1257;62486;-55
2023/04/13 10:54:08;;;;;;;8.40;4.40;;;;;;;15.95;52.02;99442.29;106122;1259;64014;-55
2023/04/13 10:56:36;;;;;;;7.60;4.10;;;;;;;15.93;52.09;99444.11;105321;1258;59617;-55
2023/04/13 10:59:05;;;;;;;8.80;4.10;;;;;;;15.89;51.99;99443.58;105307;1257;59765;-55
2023/04/13 11:01:34;;;;;;;8.20;4.50;;;;;;;15.80;52.01;99448.98;105503;1263;65363;-54
2023/04/13 11:04:03;;;;;;;9.00;4.20;;;;;;;15.71;52.45;99454.85;105516;1257;64683;-54
2023/04/13 11:06:37;;;;;;;8.60;4.20;;;;;;;15.62;52.86;99456.13;105308;1259;63777;-55
2023/04/13 11:09:10;;;;;;;9.60;4.40;;;;;;;15.56;52.98;99459.77;105282;1259;59860;-54
2023/04/13 11:11:41;;;;;;;8.40;4.90;;;;;;;15.50;53.35;99462.87;105866;1256;59634;-54
2023/04/13 11:14:20;;;;;;;9.40;4.30;;;;;;;15.47;53.56;99462.00;105279;1259;65410;-55
2023/04/13 11:16:49;;;;;;;8.00;4.10;;;;;;;15.43;53.60;99460.69;106162;1258;62448;-54
2023/04/13 11:19:18;;;;;;;9.60;4.70;;;;;;;15.39;53.90;99462.72;105658;1259;65049;-55
2023/04/13 11:21:52;;;;;;;8.50;4.30;;;;;;;15.36;54.42;99458.62;105256;1260;60081;-56
2023/04/13 11:24:22;;;;;;;;;;;;;;;15.38;54.78;99464.05;105437;1258;59526;-54
2023/04/13 11:26:51;;;;;;;9.00;4.60;;;;;;;15.35;54.72;99463.17;105413;1257;64221;-55
2023/04/13 11:29:20;;;;;;;8.50;4.70;;;;;;;15.30;54.63;99461.29;105799;1260;62649;-55
2023/04/13 11:31:50;;;;;;;7.50;4.40;;;;;;;15.24;54.70;99463.07;106930;1258;65097;-54
2023/04/13 11:34:24;;;;;;;10.30;4.50;;;;;;;15.18;54.81;99461.27;105332;1258;59665;-55
2023/04/13 11:36:59;;;;;;;7.50;4.70;;;;;;;15.13;55.11;99461.70;105147;1257;59659;-54
2023/04/13 11:39:31;;;;;;;9.00;4.10;;;;;;;15.11;55.42;99460.31;107767;1260;65191;-55
2023/04/13 11:42:04;;;;;;;8.40;4.20;;;;;;;15.13;55.66;99458.64;106210;1258;62572;-54